This is the latest recevied weather packets stored in our database for station/object I2HLY-3. If no packets are shown the sender has not sent any weather packets the latest 10 day(s).
| Time | Temp. | Humidity | Pressure | Rain* | Wind** | Luminosity | Snow |
|---|---|---|---|---|---|---|---|
| 1777932146 | 15° C | 66% | 1014.2 hPa | 0 mm | - | - | - |
| 1777931247 | 15.56° C | 59% | 1014.3 hPa | 0 mm | - | - | - |
| 1777930349 | 16.67° C | 56% | 1014.5 hPa | 0 mm | - | - | - |
| 1777929457 | 16.67° C | 54% | 1014.6 hPa | 0 mm | - | - | - |
| 1777928540 | 17.22° C | 53% | 1014.6 hPa | 0 mm | - | - | - |
| 1777679244 | 7.22° C | 90% | 1024.6 hPa | 0 mm | - | - | - |
| 1777678347 | 7.78° C | 90% | 1024.6 hPa | 0 mm | - | - | - |
| 1777677447 | 7.78° C | 89% | 1024.6 hPa | 0 mm | - | - | - |
| 1777676547 | 7.78° C | 88% | 1024.6 hPa | 0 mm | - | - | - |
| 1777675650 | 8.33° C | 88% | 1024.7 hPa | 0 mm | - | - | - |
| 1777674750 | 8.33° C | 88% | 1024.6 hPa | 0 mm | - | - | - |
| 1777672955 | 8.89° C | 86% | 1024.5 hPa | 0 mm | - | - | - |
| 1777672053 | 8.89° C | 85% | 1024.4 hPa | 0 mm | - | - | - |
| 1777671152 | 9.44° C | 85% | 1024.3 hPa | 0 mm | - | - | - |
| 1777670251 | 9.44° C | 83% | 1024.3 hPa | 0 mm | - | - | - |
| 1777669355 | 10° C | 81% | 1024.3 hPa | 0 mm | - | - | - |
| 1777668455 | 10° C | 80% | 1024.3 hPa | 0 mm | - | - | - |
| 1777667555 | 10.56° C | 77% | 1024.2 hPa | 0 mm | - | - | - |
| 1777666638 | 11.11° C | 75% | 1024.1 hPa | 0 mm | - | - | - |
| 1777665738 | 11.67° C | 73% | 1023.9 hPa | 0 mm | - | - | - |
| 1777664837 | 12.22° C | 70% | 1023.7 hPa | 0 mm | - | - | - |
| 1777663942 | 12.78° C | 68% | 1023.5 hPa | 0 mm | - | - | - |
| 1777663042 | 13.89° C | 60% | 1023.4 hPa | 0 mm | - | - | - |
| 1777662142 | 15° C | 56% | 1023.3 hPa | 0 mm | - | - | - |
| 1777661247 | 16.11° C | 53% | 1023.1 hPa | 0 mm | - | - | - |
* Rain latest hour (hover to see other rain measurements)
** Current wind speed in m/s (hover to see current wind gust speed)